sensor_id;sensor_type;location;lat;lon;timestamp;P1;durP1;ratioP1;P2;durP2;ratioP2
2840;SDS011;53423;49.224;12.074;2023-04-03T00:01:03;4.73;;;3.40;;
2840;SDS011;53423;49.224;12.074;2023-04-03T00:03:32;4.40;;;3.37;;
2840;SDS011;53423;49.224;12.074;2023-04-03T00:06:01;4.20;;;3.80;;
2840;SDS011;53423;49.224;12.074;2023-04-03T00:08:30;3.80;;;3.50;;
2840;SDS011;53423;49.224;12.074;2023-04-03T00:10:58;3.33;;;3.03;;
2840;SDS011;53423;49.224;12.074;2023-04-03T00:13:26;3.60;;;3.30;;
2840;SDS011;53423;49.224;12.074;2023-04-03T00:15:55;4.57;;;3.60;;
2840;SDS011;53423;49.224;12.074;2023-04-03T00:18:23;3.30;;;3.10;;
2840;SDS011;53423;49.224;12.074;2023-04-03T00:20:52;3.80;;;3.40;;
2840;SDS011;53423;49.224;12.074;2023-04-03T00:23:20;3.53;;;3.00;;
2840;SDS011;53423;49.224;12.074;2023-04-03T00:25:50;3.63;;;3.43;;
2840;SDS011;53423;49.224;12.074;2023-04-03T00:28:18;3.03;;;2.77;;
2840;SDS011;53423;49.224;12.074;2023-04-03T00:30:48;3.20;;;3.00;;
2840;SDS011;53423;49.224;12.074;2023-04-03T00:33:16;3.63;;;3.33;;
2840;SDS011;53423;49.224;12.074;2023-04-03T00:35:47;3.63;;;3.33;;
2840;SDS011;53423;49.224;12.074;2023-04-03T00:38:17;3.03;;;2.83;;
2840;SDS011;53423;49.224;12.074;2023-04-03T00:40:46;3.50;;;3.20;;
2840;SDS011;53423;49.224;12.074;2023-04-03T00:43:17;3.10;;;2.80;;
2840;SDS011;53423;49.224;12.074;2023-04-03T00:45:46;3.30;;;3.00;;
2840;SDS011;53423;49.224;12.074;2023-04-03T00:48:15;3.20;;;3.00;;
2840;SDS011;53423;49.224;12.074;2023-04-03T00:50:47;3.53;;;2.77;;
2840;SDS011;53423;49.224;12.074;2023-04-03T00:53:19;3.37;;;3.10;;
2840;SDS011;53423;49.224;12.074;2023-04-03T00:55:50;3.20;;;3.00;;
2840;SDS011;53423;49.224;12.074;2023-04-03T00:58:20;3.17;;;2.87;;
2840;SDS011;53423;49.224;12.074;2023-04-03T01:00:55;3.20;;;3.00;;
2840;SDS011;53423;49.224;12.074;2023-04-03T01:03:26;3.10;;;2.90;;
2840;SDS011;53423;49.224;12.074;2023-04-03T01:05:54;3.03;;;2.83;;
2840;SDS011;53423;49.224;12.074;2023-04-03T01:08:23;2.87;;;2.60;;
2840;SDS011;53423;49.224;12.074;2023-04-03T01:10:51;2.90;;;2.70;;
2840;SDS011;53423;49.224;12.074;2023-04-03T01:13:23;3.07;;;2.77;;
2840;SDS011;53423;49.224;12.074;2023-04-03T01:15:52;3.17;;;2.87;;
2840;SDS011;53423;49.224;12.074;2023-04-03T01:18:21;3.03;;;2.83;;
2840;SDS011;53423;49.224;12.074;2023-04-03T01:24:14;3.10;;;2.80;;
2840;SDS011;53423;49.224;12.074;2023-04-03T01:26:59;3.27;;;3.00;;
2840;SDS011;53423;49.224;12.074;2023-04-03T01:29:30;2.90;;;2.70;;
2840;SDS011;53423;49.224;12.074;2023-04-03T01:32:00;2.90;;;2.70;;
2840;SDS011;53423;49.224;12.074;2023-04-03T01:34:29;3.13;;;2.80;;
2840;SDS011;53423;49.224;12.074;2023-04-03T01:36:58;3.20;;;2.90;;
2840;SDS011;53423;49.224;12.074;2023-04-03T01:39:26;3.20;;;3.00;;
2840;SDS011;53423;49.224;12.074;2023-04-03T01:41:54;3.80;;;2.83;;
2840;SDS011;53423;49.224;12.074;2023-04-03T01:44:21;3.20;;;2.80;;
2840;SDS011;53423;49.224;12.074;2023-04-03T01:46:49;2.97;;;2.77;;
2840;SDS011;53423;49.224;12.074;2023-04-03T01:49:19;3.30;;;3.00;;
2840;SDS011;53423;49.224;12.074;2023-04-03T01:51:46;3.10;;;2.90;;
2840;SDS011;53423;49.224;12.074;2023-04-03T01:54:14;2.90;;;2.67;;
2840;SDS011;53423;49.224;12.074;2023-04-03T01:56:42;3.27;;;3.07;;
2840;SDS011;53423;49.224;12.074;2023-04-03T01:59:10;3.00;;;2.70;;
2840;SDS011;53423;49.224;12.074;2023-04-03T02:01:38;4.50;;;2.77;;
2840;SDS011;53423;49.224;12.074;2023-04-03T02:04:06;3.57;;;3.27;;
2840;SDS011;53423;49.224;12.074;2023-04-03T02:06:36;4.33;;;2.77;;
2840;SDS011;53423;49.224;12.074;2023-04-03T02:09:03;4.47;;;3.27;;
2840;SDS011;53423;49.224;12.074;2023-04-03T02:11:31;3.87;;;3.50;;
2840;SDS011;53423;49.224;12.074;2023-04-03T02:14:03;7.37;;;5.63;;
2840;SDS011;53423;49.224;12.074;2023-04-03T02:16:34;5.63;;;4.90;;
2840;SDS011;53423;49.224;12.074;2023-04-03T02:19:02;3.53;;;3.10;;
2840;SDS011;53423;49.224;12.074;2023-04-03T02:21:30;3.40;;;3.10;;
2840;SDS011;53423;49.224;12.074;2023-04-03T02:23:59;2.90;;;2.60;;
2840;SDS011;53423;49.224;12.074;2023-04-03T02:26:27;3.47;;;3.10;;
2840;SDS011;53423;49.224;12.074;2023-04-03T02:28:55;3.00;;;2.77;;
2840;SDS011;53423;49.224;12.074;2023-04-03T02:31:22;3.63;;;3.33;;
2840;SDS011;53423;49.224;12.074;2023-04-03T02:33:50;3.30;;;3.00;;
2840;SDS011;53423;49.224;12.074;2023-04-03T02:36:18;4.30;;;3.07;;
2840;SDS011;53423;49.224;12.074;2023-04-03T02:38:46;2.70;;;2.50;;
2840;SDS011;53423;49.224;12.074;2023-04-03T02:41:16;3.50;;;3.20;;
2840;SDS011;53423;49.224;12.074;2023-04-03T02:43:43;3.97;;;3.50;;
2840;SDS011;53423;49.224;12.074;2023-04-03T02:46:11;3.80;;;3.10;;
2840;SDS011;53423;49.224;12.074;2023-04-03T02:48:41;3.17;;;2.97;;
2840;SDS011;53423;49.224;12.074;2023-04-03T02:51:09;3.40;;;3.10;;
2840;SDS011;53423;49.224;12.074;2023-04-03T02:53:37;3.70;;;3.40;;
2840;SDS011;53423;49.224;12.074;2023-04-03T02:56:05;4.37;;;3.23;;
2840;SDS011;53423;49.224;12.074;2023-04-03T02:58:34;3.87;;;3.57;;
2840;SDS011;53423;49.224;12.074;2023-04-03T03:01:02;3.10;;;2.80;;
2840;SDS011;53423;49.224;12.074;2023-04-03T03:03:30;3.73;;;3.30;;
2840;SDS011;53423;49.224;12.074;2023-04-03T03:06:01;3.17;;;2.97;;
2840;SDS011;53423;49.224;12.074;2023-04-03T03:08:30;5.13;;;3.37;;
2840;SDS011;53423;49.224;12.074;2023-04-03T03:10:58;3.50;;;3.20;;
2840;SDS011;53423;49.224;12.074;2023-04-03T03:13:26;3.37;;;3.10;;
2840;SDS011;53423;49.224;12.074;2023-04-03T03:15:55;3.37;;;2.90;;
2840;SDS011;53423;49.224;12.074;2023-04-03T03:18:23;3.53;;;3.27;;
2840;SDS011;53423;49.224;12.074;2023-04-03T03:20:52;3.70;;;3.40;;
2840;SDS011;53423;49.224;12.074;2023-04-03T03:23:22;3.83;;;3.40;;
2840;SDS011;53423;49.224;12.074;2023-04-03T03:25:54;3.20;;;3.00;;
2840;SDS011;53423;49.224;12.074;2023-04-03T03:28:23;3.50;;;3.20;;
2840;SDS011;53423;49.224;12.074;2023-04-03T03:30:51;3.70;;;3.40;;
2840;SDS011;53423;49.224;12.074;2023-04-03T03:33:20;3.70;;;3.37;;
2840;SDS011;53423;49.224;12.074;2023-04-03T03:35:48;3.00;;;2.80;;
2840;SDS011;53423;49.224;12.074;2023-04-03T03:38:16;3.53;;;3.23;;
2840;SDS011;53423;49.224;12.074;2023-04-03T03:40:44;3.50;;;3.20;;
2840;SDS011;53423;49.224;12.074;2023-04-03T03:43:13;3.73;;;3.43;;
2840;SDS011;53423;49.224;12.074;2023-04-03T03:45:41;3.97;;;3.37;;
2840;SDS011;53423;49.224;12.074;2023-04-03T03:48:09;4.20;;;3.80;;
2840;SDS011;53423;49.224;12.074;2023-04-03T03:50:39;3.57;;;3.23;;
2840;SDS011;53423;49.224;12.074;2023-04-03T03:53:07;3.67;;;2.97;;
2840;SDS011;53423;49.224;12.074;2023-04-03T03:55:34;6.27;;;3.60;;
2840;SDS011;53423;49.224;12.074;2023-04-03T03:58:03;3.00;;;2.80;;
2840;SDS011;53423;49.224;12.074;2023-04-03T04:00:31;3.83;;;3.30;;
2840;SDS011;53423;49.224;12.074;2023-04-03T04:02:59;3.73;;;3.43;;
2840;SDS011;53423;49.224;12.074;2023-04-03T04:05:27;3.30;;;3.10;;
2840;SDS011;53423;49.224;12.074;2023-04-03T04:07:56;3.50;;;3.20;;
2840;SDS011;53423;49.224;12.074;2023-04-03T04:10:24;3.63;;;3.27;;
2840;SDS011;53423;49.224;12.074;2023-04-03T04:12:52;3.50;;;3.20;;
2840;SDS011;53423;49.224;12.074;2023-04-03T04:15:22;3.67;;;3.27;;
2840;SDS011;53423;49.224;12.074;2023-04-03T04:17:51;3.47;;;2.90;;
2840;SDS011;53423;49.224;12.074;2023-04-03T04:20:19;3.87;;;3.40;;
2840;SDS011;53423;49.224;12.074;2023-04-03T04:22:47;3.33;;;3.03;;
2840;SDS011;53423;49.224;12.074;2023-04-03T04:25:17;5.90;;;3.73;;
2840;SDS011;53423;49.224;12.074;2023-04-03T04:27:45;4.83;;;3.90;;
2840;SDS011;53423;49.224;12.074;2023-04-03T04:30:13;4.47;;;3.90;;
2840;SDS011;53423;49.224;12.074;2023-04-03T04:32:42;3.87;;;3.47;;
2840;SDS011;53423;49.224;12.074;2023-04-03T04:35:10;4.00;;;3.33;;
2840;SDS011;53423;49.224;12.074;2023-04-03T04:37:41;3.60;;;3.30;;
2840;SDS011;53423;49.224;12.074;2023-04-03T04:40:09;4.30;;;3.90;;
2840;SDS011;53423;49.224;12.074;2023-04-03T04:42:39;5.23;;;4.60;;
2840;SDS011;53423;49.224;12.074;2023-04-03T04:45:07;6.30;;;4.50;;
2840;SDS011;53423;49.224;12.074;2023-04-03T04:47:35;5.10;;;3.97;;
2840;SDS011;53423;49.224;12.074;2023-04-03T04:50:03;4.20;;;3.80;;
2840;SDS011;53423;49.224;12.074;2023-04-03T04:52:31;3.97;;;3.60;;
2840;SDS011;53423;49.224;12.074;2023-04-03T04:54:59;3.93;;;3.53;;
2840;SDS011;53423;49.224;12.074;2023-04-03T04:57:27;3.67;;;3.30;;
2840;SDS011;53423;49.224;12.074;2023-04-03T04:59:57;3.63;;;3.33;;
2840;SDS011;53423;49.224;12.074;2023-04-03T05:02:24;3.77;;;3.47;;
2840;SDS011;53423;49.224;12.074;2023-04-03T05:04:52;7.23;;;4.00;;
2840;SDS011;53423;49.224;12.074;2023-04-03T05:07:20;5.10;;;3.93;;
2840;SDS011;53423;49.224;12.074;2023-04-03T05:09:48;5.97;;;3.67;;
2840;SDS011;53423;49.224;12.074;2023-04-03T05:12:16;5.43;;;4.10;;
2840;SDS011;53423;49.224;12.074;2023-04-03T05:14:44;4.50;;;4.03;;
2840;SDS011;53423;49.224;12.074;2023-04-03T05:17:13;4.90;;;3.90;;
2840;SDS011;53423;49.224;12.074;2023-04-03T05:19:41;4.27;;;3.50;;
2840;SDS011;53423;49.224;12.074;2023-04-03T05:22:09;4.30;;;3.23;;
2840;SDS011;53423;49.224;12.074;2023-04-03T05:24:37;5.27;;;3.70;;
2840;SDS011;53423;49.224;12.074;2023-04-03T05:27:05;4.00;;;3.60;;
2840;SDS011;53423;49.224;12.074;2023-04-03T05:29:33;3.70;;;3.40;;
2840;SDS011;53423;49.224;12.074;2023-04-03T05:32:00;4.30;;;3.90;;
2840;SDS011;53423;49.224;12.074;2023-04-03T05:34:30;5.63;;;4.80;;
2840;SDS011;53423;49.224;12.074;2023-04-03T05:36:58;4.40;;;4.00;;
2840;SDS011;53423;49.224;12.074;2023-04-03T05:39:26;4.40;;;4.00;;
2840;SDS011;53423;49.224;12.074;2023-04-03T05:41:54;3.73;;;3.43;;
2840;SDS011;53423;49.224;12.074;2023-04-03T05:44:22;3.83;;;3.53;;
2840;SDS011;53423;49.224;12.074;2023-04-03T05:46:50;3.70;;;3.40;;
2840;SDS011;53423;49.224;12.074;2023-04-03T05:49:18;5.00;;;3.83;;
2840;SDS011;53423;49.224;12.074;2023-04-03T05:51:47;4.87;;;3.80;;
2840;SDS011;53423;49.224;12.074;2023-04-03T05:54:17;4.30;;;3.90;;
2840;SDS011;53423;49.224;12.074;2023-04-03T05:56:49;3.63;;;3.33;;
2840;SDS011;53423;49.224;12.074;2023-04-03T05:59:17;3.80;;;3.43;;
2840;SDS011;53423;49.224;12.074;2023-04-03T06:01:46;4.23;;;3.13;;
2840;SDS011;53423;49.224;12.074;2023-04-03T06:04:14;3.67;;;3.30;;
2840;SDS011;53423;49.224;12.074;2023-04-03T06:06:43;3.47;;;3.17;;
2840;SDS011;53423;49.224;12.074;2023-04-03T06:09:18;4.50;;;4.10;;
2840;SDS011;53423;49.224;12.074;2023-04-03T06:11:47;4.67;;;3.50;;
2840;SDS011;53423;49.224;12.074;2023-04-03T06:14:15;4.07;;;3.60;;
2840;SDS011;53423;49.224;12.074;2023-04-03T06:16:43;4.30;;;3.60;;
2840;SDS011;53423;49.224;12.074;2023-04-03T06:19:11;3.97;;;3.67;;
2840;SDS011;53423;49.224;12.074;2023-04-03T06:21:39;5.50;;;4.13;;
2840;SDS011;53423;49.224;12.074;2023-04-03T06:24:09;5.27;;;3.47;;
2840;SDS011;53423;49.224;12.074;2023-04-03T06:26:39;3.67;;;3.17;;
2840;SDS011;53423;49.224;12.074;2023-04-03T06:29:07;4.00;;;3.60;;
2840;SDS011;53423;49.224;12.074;2023-04-03T06:31:35;4.93;;;4.10;;
2840;SDS011;53423;49.224;12.074;2023-04-03T06:34:05;5.77;;;4.50;;
2840;SDS011;53423;49.224;12.074;2023-04-03T06:36:35;4.97;;;4.13;;
2840;SDS011;53423;49.224;12.074;2023-04-03T06:39:03;4.60;;;4.00;;
2840;SDS011;53423;49.224;12.074;2023-04-03T06:41:32;4.00;;;3.43;;
2840;SDS011;53423;49.224;12.074;2023-04-03T06:44:02;4.23;;;3.43;;
2840;SDS011;53423;49.224;12.074;2023-04-03T06:46:30;4.07;;;3.77;;
2840;SDS011;53423;49.224;12.074;2023-04-03T06:48:58;4.03;;;3.63;;
2840;SDS011;53423;49.224;12.074;2023-04-03T06:51:26;3.97;;;3.53;;
2840;SDS011;53423;49.224;12.074;2023-04-03T06:53:56;4.03;;;3.63;;
2840;SDS011;53423;49.224;12.074;2023-04-03T06:56:26;4.50;;;3.73;;
2840;SDS011;53423;49.224;12.074;2023-04-03T06:58:56;4.33;;;3.17;;
2840;SDS011;53423;49.224;12.074;2023-04-03T07:01:25;4.03;;;3.47;;
2840;SDS011;53423;49.224;12.074;2023-04-03T07:03:54;4.23;;;3.83;;
2840;SDS011;53423;49.224;12.074;2023-04-03T07:06:23;5.73;;;4.07;;
2840;SDS011;53423;49.224;12.074;2023-04-03T07:08:53;4.37;;;3.67;;
2840;SDS011;53423;49.224;12.074;2023-04-03T07:11:22;4.77;;;3.57;;
2840;SDS011;53423;49.224;12.074;2023-04-03T07:13:50;3.30;;;3.00;;
2840;SDS011;53423;49.224;12.074;2023-04-03T07:16:20;3.43;;;3.00;;
2840;SDS011;53423;49.224;12.074;2023-04-03T07:18:47;3.57;;;3.00;;
2840;SDS011;53423;49.224;12.074;2023-04-03T07:21:15;5.67;;;2.93;;
2840;SDS011;53423;49.224;12.074;2023-04-03T07:23:43;4.13;;;3.00;;
2840;SDS011;53423;49.224;12.074;2023-04-03T07:26:11;4.27;;;3.10;;
2840;SDS011;53423;49.224;12.074;2023-04-03T07:28:39;3.13;;;2.57;;
2840;SDS011;53423;49.224;12.074;2023-04-03T07:31:10;3.27;;;2.80;;
2840;SDS011;53423;49.224;12.074;2023-04-03T07:33:41;5.93;;;2.93;;
2840;SDS011;53423;49.224;12.074;2023-04-03T07:36:09;3.83;;;2.70;;
2840;SDS011;53423;49.224;12.074;2023-04-03T07:38:41;3.30;;;3.00;;
2840;SDS011;53423;49.224;12.074;2023-04-03T07:41:11;3.10;;;2.73;;
2840;SDS011;53423;49.224;12.074;2023-04-03T07:43:41;3.73;;;2.60;;
2840;SDS011;53423;49.224;12.074;2023-04-03T07:46:09;3.40;;;2.60;;
2840;SDS011;53423;49.224;12.074;2023-04-03T07:48:37;4.03;;;2.63;;
2840;SDS011;53423;49.224;12.074;2023-04-03T07:51:06;3.13;;;2.33;;
2840;SDS011;53423;49.224;12.074;2023-04-03T07:53:35;3.87;;;2.90;;
2840;SDS011;53423;49.224;12.074;2023-04-03T07:56:02;3.03;;;2.53;;
2840;SDS011;53423;49.224;12.074;2023-04-03T07:58:31;3.17;;;2.47;;
2840;SDS011;53423;49.224;12.074;2023-04-03T08:00:59;3.33;;;2.10;;
2840;SDS011;53423;49.224;12.074;2023-04-03T08:03:27;2.97;;;2.20;;
2840;SDS011;53423;49.224;12.074;2023-04-03T08:06:00;2.73;;;2.47;;
2840;SDS011;53423;49.224;12.074;2023-04-03T08:08:31;2.50;;;2.27;;
2840;SDS011;53423;49.224;12.074;2023-04-03T08:11:00;2.67;;;1.90;;
2840;SDS011;53423;49.224;12.074;2023-04-03T08:13:29;2.10;;;1.90;;
2840;SDS011;53423;49.224;12.074;2023-04-03T08:15:57;2.13;;;1.90;;
2840;SDS011;53423;49.224;12.074;2023-04-03T08:18:25;2.80;;;2.37;;
2840;SDS011;53423;49.224;12.074;2023-04-03T08:20:53;2.40;;;2.00;;
2840;SDS011;53423;49.224;12.074;2023-04-03T08:23:21;1.87;;;1.60;;
2840;SDS011;53423;49.224;12.074;2023-04-03T08:25:51;3.27;;;1.67;;
2840;SDS011;53423;49.224;12.074;2023-04-03T08:28:19;1.93;;;1.70;;
2840;SDS011;53423;49.224;12.074;2023-04-03T08:30:47;3.07;;;1.87;;
2840;SDS011;53423;49.224;12.074;2023-04-03T08:33:15;2.63;;;1.70;;
2840;SDS011;53423;49.224;12.074;2023-04-03T08:35:42;1.80;;;1.70;;
2840;SDS011;53423;49.224;12.074;2023-04-03T08:38:10;1.80;;;1.60;;
2840;SDS011;53423;49.224;12.074;2023-04-03T08:40:39;2.50;;;1.93;;
2840;SDS011;53423;49.224;12.074;2023-04-03T08:43:16;1.93;;;1.73;;
2840;SDS011;53423;49.224;12.074;2023-04-03T08:45:57;2.50;;;2.17;;
2840;SDS011;53423;49.224;12.074;2023-04-03T08:48:31;3.33;;;1.83;;
2840;SDS011;53423;49.224;12.074;2023-04-03T08:51:02;2.63;;;1.73;;
2840;SDS011;53423;49.224;12.074;2023-04-03T08:53:39;2.00;;;1.60;;
2840;SDS011;53423;49.224;12.074;2023-04-03T08:56:09;1.70;;;1.60;;
2840;SDS011;53423;49.224;12.074;2023-04-03T08:58:42;3.13;;;1.90;;
2840;SDS011;53423;49.224;12.074;2023-04-03T09:01:17;2.13;;;1.73;;
2840;SDS011;53423;49.224;12.074;2023-04-03T09:03:47;2.23;;;1.33;;
2840;SDS011;53423;49.224;12.074;2023-04-03T09:06:15;2.63;;;1.60;;
2840;SDS011;53423;49.224;12.074;2023-04-03T09:08:49;1.93;;;1.30;;
2840;SDS011;53423;49.224;12.074;2023-04-03T09:11:24;1.77;;;1.20;;
2840;SDS011;53423;49.224;12.074;2023-04-03T09:13:57;2.40;;;1.50;;
2840;SDS011;53423;49.224;12.074;2023-04-03T09:16:32;2.10;;;1.57;;
2840;SDS011;53423;49.224;12.074;2023-04-03T09:19:11;2.53;;;1.87;;
2840;SDS011;53423;49.224;12.074;2023-04-03T09:21:46;1.80;;;1.50;;
2840;SDS011;53423;49.224;12.074;2023-04-03T09:24:15;3.10;;;1.90;;
2840;SDS011;53423;49.224;12.074;2023-04-03T09:26:45;2.10;;;1.40;;
2840;SDS011;53423;49.224;12.074;2023-04-03T09:29:20;2.37;;;1.67;;
2840;SDS011;53423;49.224;12.074;2023-04-03T09:31:52;1.77;;;1.60;;
2840;SDS011;53423;49.224;12.074;2023-04-03T09:34:25;1.57;;;1.20;;
2840;SDS011;53423;49.224;12.074;2023-04-03T09:36:55;2.57;;;1.53;;
2840;SDS011;53423;49.224;12.074;2023-04-03T09:39:25;2.23;;;1.73;;
2840;SDS011;53423;49.224;12.074;2023-04-03T09:41:56;2.13;;;1.80;;
2840;SDS011;53423;49.224;12.074;2023-04-03T09:44:28;1.80;;;1.47;;
2840;SDS011;53423;49.224;12.074;2023-04-03T09:47:16;3.97;;;1.80;;
2840;SDS011;53423;49.224;12.074;2023-04-03T09:49:46;1.97;;;1.67;;
2840;SDS011;53423;49.224;12.074;2023-04-03T09:52:18;3.07;;;1.97;;
2840;SDS011;53423;49.224;12.074;2023-04-03T09:54:47;2.40;;;1.60;;
2840;SDS011;53423;49.224;12.074;2023-04-03T09:57:15;2.17;;;1.33;;
2840;SDS011;53423;49.224;12.074;2023-04-03T09:59:46;1.70;;;1.60;;
2840;SDS011;53423;49.224;12.074;2023-04-03T10:02:28;2.10;;;1.50;;
2840;SDS011;53423;49.224;12.074;2023-04-03T10:05:02;1.90;;;1.67;;
2840;SDS011;53423;49.224;12.074;2023-04-03T10:07:35;2.70;;;1.57;;
2840;SDS011;53423;49.224;12.074;2023-04-03T10:10:19;1.87;;;1.40;;
2840;SDS011;53423;49.224;12.074;2023-04-03T10:13:03;2.17;;;1.40;;
2840;SDS011;53423;49.224;12.074;2023-04-03T10:15:35;1.90;;;1.70;;
2840;SDS011;53423;49.224;12.074;2023-04-03T10:18:10;1.80;;;1.40;;
2840;SDS011;53423;49.224;12.074;2023-04-03T10:20:52;1.80;;;1.50;;
2840;SDS011;53423;49.224;12.074;2023-04-03T10:23:26;1.50;;;1.27;;
2840;SDS011;53423;49.224;12.074;2023-04-03T10:26:02;1.47;;;1.37;;
2840;SDS011;53423;49.224;12.074;2023-04-03T10:28:43;2.70;;;1.33;;
2840;SDS011;53423;49.224;12.074;2023-04-03T10:31:21;1.67;;;1.40;;
2840;SDS011;53423;49.224;12.074;2023-04-03T10:33:55;1.57;;;1.30;;
2840;SDS011;53423;49.224;12.074;2023-04-03T10:36:34;2.07;;;1.40;;
2840;SDS011;53423;49.224;12.074;2023-04-03T10:39:12;2.37;;;1.40;;
2840;SDS011;53423;49.224;12.074;2023-04-03T10:41:52;2.33;;;1.50;;
2840;SDS011;53423;49.224;12.074;2023-04-03T10:44:42;1.30;;;1.20;;
2840;SDS011;53423;49.224;12.074;2023-04-03T10:47:24;1.90;;;1.50;;
2840;SDS011;53423;49.224;12.074;2023-04-03T10:50:01;1.60;;;1.37;;
2840;SDS011;53423;49.224;12.074;2023-04-03T10:52:39;1.60;;;1.30;;
2840;SDS011;53423;49.224;12.074;2023-04-03T10:55:19;1.53;;;1.37;;
2840;SDS011;53423;49.224;12.074;2023-04-03T10:57:56;2.10;;;1.50;;
2840;SDS011;53423;49.224;12.074;2023-04-03T11:00:27;1.43;;;1.33;;
2840;SDS011;53423;49.224;12.074;2023-04-03T11:03:06;1.17;;;1.07;;
2840;SDS011;53423;49.224;12.074;2023-04-03T11:05:42;1.77;;;1.47;;
2840;SDS011;53423;49.224;12.074;2023-04-03T11:08:14;1.57;;;1.23;;
2840;SDS011;53423;49.224;12.074;2023-04-03T11:10:49;1.70;;;1.00;;
2840;SDS011;53423;49.224;12.074;2023-04-03T11:13:19;1.20;;;1.10;;
2840;SDS011;53423;49.224;12.074;2023-04-03T11:15:53;2.23;;;1.30;;
2840;SDS011;53423;49.224;12.074;2023-04-03T11:18:25;1.93;;;1.50;;
2840;SDS011;53423;49.224;12.074;2023-04-03T11:20:59;1.60;;;1.37;;
2840;SDS011;53423;49.224;12.074;2023-04-03T11:23:30;2.20;;;1.57;;
2840;SDS011;53423;49.224;12.074;2023-04-03T11:26:15;1.70;;;1.60;;
2840;SDS011;53423;49.224;12.074;2023-04-03T11:28:45;2.10;;;1.23;;
2840;SDS011;53423;49.224;12.074;2023-04-03T11:31:16;1.50;;;1.30;;
2840;SDS011;53423;49.224;12.074;2023-04-03T11:33:58;1.37;;;1.23;;
2840;SDS011;53423;49.224;12.074;2023-04-03T11:36:38;2.20;;;1.50;;
2840;SDS011;53423;49.224;12.074;2023-04-03T11:39:15;1.50;;;1.37;;
2840;SDS011;53423;49.224;12.074;2023-04-03T11:41:48;1.77;;;1.40;;
2840;SDS011;53423;49.224;12.074;2023-04-03T11:44:29;1.30;;;1.20;;
2840;SDS011;53423;49.224;12.074;2023-04-03T11:47:00;1.80;;;1.40;;
2840;SDS011;53423;49.224;12.074;2023-04-03T11:58:29;1.63;;;1.20;;
2840;SDS011;53423;49.224;12.074;2023-04-03T12:00:59;2.60;;;1.47;;
2840;SDS011;53423;49.224;12.074;2023-04-03T12:03:34;1.37;;;1.17;;
2840;SDS011;53423;49.224;12.074;2023-04-03T12:12:57;1.50;;;1.30;;
2840;SDS011;53423;49.224;12.074;2023-04-03T12:21:10;1.87;;;1.37;;
2840;SDS011;53423;49.224;12.074;2023-04-03T12:24:02;1.87;;;1.33;;
2840;SDS011;53423;49.224;12.074;2023-04-03T12:26:35;1.87;;;1.63;;
2840;SDS011;53423;49.224;12.074;2023-04-03T12:29:15;2.10;;;1.47;;
2840;SDS011;53423;49.224;12.074;2023-04-03T12:31:50;1.50;;;1.40;;
2840;SDS011;53423;49.224;12.074;2023-04-03T12:34:43;1.53;;;1.20;;
2840;SDS011;53423;49.224;12.074;2023-04-03T12:37:21;2.10;;;0.90;;
2840;SDS011;53423;49.224;12.074;2023-04-03T12:40:06;2.77;;;1.40;;
2840;SDS011;53423;49.224;12.074;2023-04-03T12:42:42;2.03;;;1.60;;
2840;SDS011;53423;49.224;12.074;2023-04-03T12:45:37;1.90;;;1.20;;
2840;SDS011;53423;49.224;12.074;2023-04-03T12:48:12;2.50;;;1.60;;
2840;SDS011;53423;49.224;12.074;2023-04-03T12:50:43;5.77;;;4.50;;
2840;SDS011;53423;49.224;12.074;2023-04-03T12:53:15;2.40;;;2.20;;
2840;SDS011;53423;49.224;12.074;2023-04-03T12:55:45;1.20;;;1.07;;
2840;SDS011;53423;49.224;12.074;2023-04-03T12:58:16;0.97;;;0.93;;
2840;SDS011;53423;49.224;12.074;2023-04-03T13:00:58;1.80;;;1.50;;
2840;SDS011;53423;49.224;12.074;2023-04-03T13:03:28;2.30;;;1.60;;
2840;SDS011;53423;49.224;12.074;2023-04-03T13:05:57;1.67;;;1.20;;
2840;SDS011;53423;49.224;12.074;2023-04-03T13:08:28;1.70;;;1.40;;
2840;SDS011;53423;49.224;12.074;2023-04-03T13:10:58;1.60;;;1.40;;
2840;SDS011;53423;49.224;12.074;2023-04-03T13:13:31;1.80;;;1.40;;
2840;SDS011;53423;49.224;12.074;2023-04-03T13:15:59;1.40;;;1.17;;
2840;SDS011;53423;49.224;12.074;2023-04-03T13:18:28;3.20;;;1.60;;
2840;SDS011;53423;49.224;12.074;2023-04-03T13:20:59;1.30;;;1.20;;
2840;SDS011;53423;49.224;12.074;2023-04-03T13:23:32;2.70;;;1.30;;
2840;SDS011;53423;49.224;12.074;2023-04-03T13:26:04;1.77;;;1.50;;
2840;SDS011;53423;49.224;12.074;2023-04-03T13:28:34;1.80;;;1.70;;
2840;SDS011;53423;49.224;12.074;2023-04-03T13:31:06;2.17;;;1.60;;
2840;SDS011;53423;49.224;12.074;2023-04-03T13:33:37;1.50;;;1.40;;
2840;SDS011;53423;49.224;12.074;2023-04-03T13:36:06;1.80;;;1.70;;
2840;SDS011;53423;49.224;12.074;2023-04-03T13:38:43;2.77;;;1.83;;
2840;SDS011;53423;49.224;12.074;2023-04-03T13:41:25;3.87;;;2.70;;
2840;SDS011;53423;49.224;12.074;2023-04-03T13:44:13;1.40;;;1.30;;
2840;SDS011;53423;49.224;12.074;2023-04-03T13:46:43;3.20;;;1.70;;
2840;SDS011;53423;49.224;12.074;2023-04-03T13:49:18;1.50;;;1.30;;
2840;SDS011;53423;49.224;12.074;2023-04-03T13:51:47;1.83;;;1.73;;
2840;SDS011;53423;49.224;12.074;2023-04-03T13:54:33;2.30;;;1.73;;
2840;SDS011;53423;49.224;12.074;2023-04-03T13:57:03;2.53;;;2.33;;
2840;SDS011;53423;49.224;12.074;2023-04-03T13:59:40;2.40;;;1.67;;
2840;SDS011;53423;49.224;12.074;2023-04-03T14:02:15;2.37;;;1.77;;
2840;SDS011;53423;49.224;12.074;2023-04-03T14:04:46;2.23;;;1.80;;
2840;SDS011;53423;49.224;12.074;2023-04-03T14:07:19;1.87;;;1.70;;
2840;SDS011;53423;49.224;12.074;2023-04-03T14:09:47;2.10;;;1.90;;
2840;SDS011;53423;49.224;12.074;2023-04-03T14:12:17;3.13;;;2.60;;
2840;SDS011;53423;49.224;12.074;2023-04-03T14:14:58;2.60;;;1.83;;
2840;SDS011;53423;49.224;12.074;2023-04-03T14:17:28;2.23;;;1.80;;
2840;SDS011;53423;49.224;12.074;2023-04-03T14:19:56;2.20;;;2.00;;
2840;SDS011;53423;49.224;12.074;2023-04-03T14:22:28;1.87;;;1.77;;
2840;SDS011;53423;49.224;12.074;2023-04-03T14:24:57;2.90;;;2.20;;
2840;SDS011;53423;49.224;12.074;2023-04-03T14:27:27;2.40;;;1.67;;
2840;SDS011;53423;49.224;12.074;2023-04-03T14:29:56;2.57;;;1.67;;
2840;SDS011;53423;49.224;12.074;2023-04-03T14:32:26;2.00;;;1.57;;
2840;SDS011;53423;49.224;12.074;2023-04-03T14:34:55;2.13;;;1.70;;
2840;SDS011;53423;49.224;12.074;2023-04-03T14:37:25;2.67;;;1.80;;
2840;SDS011;53423;49.224;12.074;2023-04-03T14:39:57;3.50;;;2.20;;
2840;SDS011;53423;49.224;12.074;2023-04-03T14:42:27;3.87;;;2.20;;
2840;SDS011;53423;49.224;12.074;2023-04-03T14:44:58;2.00;;;1.77;;
2840;SDS011;53423;49.224;12.074;2023-04-03T14:47:28;2.00;;;1.80;;
2840;SDS011;53423;49.224;12.074;2023-04-03T14:49:58;2.40;;;2.20;;
2840;SDS011;53423;49.224;12.074;2023-04-03T14:52:28;3.00;;;2.77;;
2840;SDS011;53423;49.224;12.074;2023-04-03T14:54:57;4.00;;;2.83;;
2840;SDS011;53423;49.224;12.074;2023-04-03T14:57:27;3.83;;;2.83;;
2840;SDS011;53423;49.224;12.074;2023-04-03T14:59:56;4.47;;;2.07;;
2840;SDS011;53423;49.224;12.074;2023-04-03T15:02:27;1.83;;;1.67;;
2840;SDS011;53423;49.224;12.074;2023-04-03T15:04:58;1.90;;;1.80;;
2840;SDS011;53423;49.224;12.074;2023-04-03T15:07:31;2.70;;;1.83;;
2840;SDS011;53423;49.224;12.074;2023-04-03T15:10:02;1.70;;;1.60;;
2840;SDS011;53423;49.224;12.074;2023-04-03T15:12:41;2.83;;;2.20;;
2840;SDS011;53423;49.224;12.074;2023-04-03T15:15:09;2.23;;;2.07;;
2840;SDS011;53423;49.224;12.074;2023-04-03T15:17:38;3.90;;;2.37;;
2840;SDS011;53423;49.224;12.074;2023-04-03T15:20:10;2.80;;;1.73;;
2840;SDS011;53423;49.224;12.074;2023-04-03T15:22:41;2.93;;;1.90;;
2840;SDS011;53423;49.224;12.074;2023-04-03T15:25:09;2.77;;;2.23;;
2840;SDS011;53423;49.224;12.074;2023-04-03T15:27:37;2.30;;;2.10;;
2840;SDS011;53423;49.224;12.074;2023-04-03T15:30:08;1.97;;;1.70;;
2840;SDS011;53423;49.224;12.074;2023-04-03T15:32:41;2.93;;;1.73;;
2840;SDS011;53423;49.224;12.074;2023-04-03T15:35:10;2.40;;;1.93;;